sensor_id;sensor_type;location;lat;lon;timestamp;temperature;humidity
46608;DHT22;32330;51.936;7.184;2023-11-21T04:48:10;8.30;99.90
46608;DHT22;32330;51.936;7.184;2023-11-21T04:50:37;8.30;99.90
46608;DHT22;32330;51.936;7.184;2023-11-21T04:53:04;8.30;99.90
46608;DHT22;32330;51.936;7.184;2023-11-21T04:55:32;8.30;99.90
46608;DHT22;32330;51.936;7.184;2023-11-21T04:57:58;8.30;99.90
46608;DHT22;32330;51.936;7.184;2023-11-21T05:00:25;8.30;99.90
46608;DHT22;32330;51.936;7.184;2023-11-21T05:02:52;8.30;99.90
46608;DHT22;32330;51.936;7.184;2023-11-21T05:05:20;8.30;99.90
46608;DHT22;32330;51.936;7.184;2023-11-21T05:07:48;8.30;99.90
46608;DHT22;32330;51.936;7.184;2023-11-21T05:10:15;8.30;99.90
46608;DHT22;32330;51.936;7.184;2023-11-21T05:12:42;8.30;99.90
46608;DHT22;32330;51.936;7.184;2023-11-21T05:15:10;8.30;99.90
46608;DHT22;32330;51.936;7.184;2023-11-21T05:17:38;8.30;99.90
46608;DHT22;32330;51.936;7.184;2023-11-21T05:20:08;8.30;99.90
46608;DHT22;32330;51.936;7.184;2023-11-21T05:22:36;8.30;99.90
46608;DHT22;32330;51.936;7.184;2023-11-21T05:25:04;8.30;99.90
46608;DHT22;32330;51.936;7.184;2023-11-21T05:27:33;8.30;99.90
46608;DHT22;32330;51.936;7.184;2023-11-21T05:30:01;8.30;99.90
46608;DHT22;32330;51.936;7.184;2023-11-21T05:32:28;8.30;99.90
46608;DHT22;32330;51.936;7.184;2023-11-21T05:34:55;8.30;99.90
46608;DHT22;32330;51.936;7.184;2023-11-21T05:37:22;8.30;99.90
46608;DHT22;32330;51.936;7.184;2023-11-21T05:39:50;8.30;99.90
46608;DHT22;32330;51.936;7.184;2023-11-21T05:42:17;8.30;99.90
46608;DHT22;32330;51.936;7.184;2023-11-21T05:44:44;8.30;99.90
46608;DHT22;32330;51.936;7.184;2023-11-21T05:47:11;8.30;99.90
46608;DHT22;32330;51.936;7.184;2023-11-21T05:49:39;8.30;99.90
46608;DHT22;32330;51.936;7.184;2023-11-21T05:52:06;8.30;99.90
46608;DHT22;32330;51.936;7.184;2023-11-21T05:54:33;8.30;99.90
46608;DHT22;32330;51.936;7.184;2023-11-21T05:57:01;8.30;99.90
46608;DHT22;32330;51.936;7.184;2023-11-21T05:59:28;8.30;99.90
46608;DHT22;32330;51.936;7.184;2023-11-21T06:01:54;8.30;99.90
46608;DHT22;32330;51.936;7.184;2023-11-21T06:04:21;8.30;99.90
46608;DHT22;32330;51.936;7.184;2023-11-21T06:06:51;8.30;99.90
46608;DHT22;32330;51.936;7.184;2023-11-21T06:09:18;8.30;99.90
46608;DHT22;32330;51.936;7.184;2023-11-21T06:11:45;8.30;99.90
46608;DHT22;32330;51.936;7.184;2023-11-21T06:14:13;8.30;99.90
46608;DHT22;32330;51.936;7.184;2023-11-21T06:16:43;8.30;99.90
46608;DHT22;32330;51.936;7.184;2023-11-21T06:19:11;8.30;99.90
46608;DHT22;32330;51.936;7.184;2023-11-21T06:21:38;8.30;99.90
46608;DHT22;32330;51.936;7.184;2023-11-21T06:24:05;8.30;99.90
46608;DHT22;32330;51.936;7.184;2023-11-21T06:26:32;8.30;99.90
46608;DHT22;32330;51.936;7.184;2023-11-21T06:29:00;8.30;99.90
46608;DHT22;32330;51.936;7.184;2023-11-21T06:31:30;8.30;99.90
46608;DHT22;32330;51.936;7.184;2023-11-21T06:33:58;8.30;99.90
46608;DHT22;32330;51.936;7.184;2023-11-21T06:36:25;8.30;99.90
46608;DHT22;32330;51.936;7.184;2023-11-21T06:38:53;8.30;99.90
46608;DHT22;32330;51.936;7.184;2023-11-21T06:41:20;8.30;99.90
46608;DHT22;32330;51.936;7.184;2023-11-21T06:43:48;8.30;99.90
46608;DHT22;32330;51.936;7.184;2023-11-21T06:46:15;8.30;99.90
46608;DHT22;32330;51.936;7.184;2023-11-21T06:48:43;8.30;99.90
46608;DHT22;32330;51.936;7.184;2023-11-21T06:51:10;8.30;99.90
46608;DHT22;32330;51.936;7.184;2023-11-21T06:53:38;8.30;99.90
46608;DHT22;32330;51.936;7.184;2023-11-21T06:56:15;8.30;99.90
46608;DHT22;32330;51.936;7.184;2023-11-21T06:58:42;8.30;99.90
46608;DHT22;32330;51.936;7.184;2023-11-21T07:01:11;8.30;99.90
46608;DHT22;32330;51.936;7.184;2023-11-21T07:03:38;8.30;99.90
46608;DHT22;32330;51.936;7.184;2023-11-21T07:06:08;8.30;99.90
46608;DHT22;32330;51.936;7.184;2023-11-21T07:08:35;8.30;99.90
46608;DHT22;32330;51.936;7.184;2023-11-21T07:11:02;8.30;99.90
46608;DHT22;32330;51.936;7.184;2023-11-21T07:13:29;8.30;99.90
46608;DHT22;32330;51.936;7.184;2023-11-21T07:15:57;8.30;99.90
46608;DHT22;32330;51.936;7.184;2023-11-21T07:18:24;8.30;99.90
46608;DHT22;32330;51.936;7.184;2023-11-21T07:20:51;8.40;99.90
46608;DHT22;32330;51.936;7.184;2023-11-21T07:23:19;8.30;99.90
46608;DHT22;32330;51.936;7.184;2023-11-21T07:25:48;8.30;99.90
46608;DHT22;32330;51.936;7.184;2023-11-21T07:28:15;8.30;99.90
46608;DHT22;32330;51.936;7.184;2023-11-21T07:30:42;8.40;99.90
46608;DHT22;32330;51.936;7.184;2023-11-21T07:33:09;8.40;99.90
46608;DHT22;32330;51.936;7.184;2023-11-21T07:35:36;8.40;99.90
46608;DHT22;32330;51.936;7.184;2023-11-21T07:38:03;8.40;99.90
46608;DHT22;32330;51.936;7.184;2023-11-21T07:40:31;8.40;99.90
46608;DHT22;32330;51.936;7.184;2023-11-21T07:42:58;8.40;99.90
46608;DHT22;32330;51.936;7.184;2023-11-21T07:45:25;8.40;99.90
46608;DHT22;32330;51.936;7.184;2023-11-21T07:47:53;8.40;99.90
46608;DHT22;32330;51.936;7.184;2023-11-21T07:50:20;8.40;99.90
46608;DHT22;32330;51.936;7.184;2023-11-21T07:52:47;8.50;99.90
46608;DHT22;32330;51.936;7.184;2023-11-21T07:55:15;8.50;99.90
46608;DHT22;32330;51.936;7.184;2023-11-21T07:57:44;8.40;99.90
46608;DHT22;32330;51.936;7.184;2023-11-21T08:00:12;8.50;99.90
46608;DHT22;32330;51.936;7.184;2023-11-21T08:02:41;8.50;99.90
46608;DHT22;32330;51.936;7.184;2023-11-21T08:05:09;8.50;99.90
46608;DHT22;32330;51.936;7.184;2023-11-21T08:07:36;8.50;99.90
46608;DHT22;32330;51.936;7.184;2023-11-21T08:10:04;8.50;99.90
46608;DHT22;32330;51.936;7.184;2023-11-21T08:12:31;8.50;99.90
46608;DHT22;32330;51.936;7.184;2023-11-21T08:14:59;8.50;99.90
46608;DHT22;32330;51.936;7.184;2023-11-21T08:17:28;8.50;99.90
46608;DHT22;32330;51.936;7.184;2023-11-21T08:19:57;8.50;99.90
46608;DHT22;32330;51.936;7.184;2023-11-21T08:22:24;8.60;99.90
46608;DHT22;32330;51.936;7.184;2023-11-21T08:24:51;8.60;99.90
46608;DHT22;32330;51.936;7.184;2023-11-21T08:27:18;8.60;99.90
46608;DHT22;32330;51.936;7.184;2023-11-21T08:29:44;8.50;99.90
46608;DHT22;32330;51.936;7.184;2023-11-21T08:32:13;8.60;99.90
46608;DHT22;32330;51.936;7.184;2023-11-21T08:34:40;8.60;99.90
46608;DHT22;32330;51.936;7.184;2023-11-21T08:37:08;8.60;99.90
46608;DHT22;32330;51.936;7.184;2023-11-21T08:39:36;8.70;99.90
46608;DHT22;32330;51.936;7.184;2023-11-21T08:42:04;8.70;99.90
46608;DHT22;32330;51.936;7.184;2023-11-21T08:44:31;8.70;99.90
46608;DHT22;32330;51.936;7.184;2023-11-21T08:46:58;8.70;99.90
46608;DHT22;32330;51.936;7.184;2023-11-21T08:49:26;8.70;99.90
46608;DHT22;32330;51.936;7.184;2023-11-21T08:51:55;8.80;99.90
46608;DHT22;32330;51.936;7.184;2023-11-21T08:54:23;8.80;99.90
46608;DHT22;32330;51.936;7.184;2023-11-21T08:56:51;8.90;99.90
46608;DHT22;32330;51.936;7.184;2023-11-21T08:59:18;8.90;99.90
46608;DHT22;32330;51.936;7.184;2023-11-21T09:01:45;8.90;99.90
46608;DHT22;32330;51.936;7.184;2023-11-21T09:04:13;9.00;99.90
46608;DHT22;32330;51.936;7.184;2023-11-21T09:06:41;9.00;99.90
46608;DHT22;32330;51.936;7.184;2023-11-21T09:09:08;9.10;99.90
46608;DHT22;32330;51.936;7.184;2023-11-21T09:11:35;9.00;99.90
46608;DHT22;32330;51.936;7.184;2023-11-21T09:14:02;9.00;99.90
46608;DHT22;32330;51.936;7.184;2023-11-21T09:16:30;9.00;99.90
46608;DHT22;32330;51.936;7.184;2023-11-21T09:18:57;9.10;99.90
46608;DHT22;32330;51.936;7.184;2023-11-21T09:21:24;9.10;99.90
46608;DHT22;32330;51.936;7.184;2023-11-21T09:23:53;9.10;99.90
46608;DHT22;32330;51.936;7.184;2023-11-21T09:26:20;9.10;99.90
46608;DHT22;32330;51.936;7.184;2023-11-21T09:28:47;9.10;99.90
46608;DHT22;32330;51.936;7.184;2023-11-21T09:31:14;9.20;99.90
46608;DHT22;32330;51.936;7.184;2023-11-21T09:33:42;9.20;99.90
46608;DHT22;32330;51.936;7.184;2023-11-21T09:36:11;9.20;99.90
46608;DHT22;32330;51.936;7.184;2023-11-21T09:38:39;9.30;99.90
46608;DHT22;32330;51.936;7.184;2023-11-21T09:41:15;9.30;99.90
46608;DHT22;32330;51.936;7.184;2023-11-21T09:43:46;9.30;99.90
46608;DHT22;32330;51.936;7.184;2023-11-21T09:46:14;9.30;99.90
46608;DHT22;32330;51.936;7.184;2023-11-21T09:48:47;9.30;99.90
46608;DHT22;32330;51.936;7.184;2023-11-21T09:51:19;9.30;99.90
46608;DHT22;32330;51.936;7.184;2023-11-21T09:53:48;9.30;99.90
46608;DHT22;32330;51.936;7.184;2023-11-21T09:56:19;9.40;99.90
46608;DHT22;32330;51.936;7.184;2023-11-21T09:58:51;9.40;99.90
46608;DHT22;32330;51.936;7.184;2023-11-21T10:01:19;9.40;99.90
46608;DHT22;32330;51.936;7.184;2023-11-21T10:03:46;9.40;99.90
46608;DHT22;32330;51.936;7.184;2023-11-21T10:06:13;9.40;99.90
46608;DHT22;32330;51.936;7.184;2023-11-21T10:08:42;9.40;99.90
46608;DHT22;32330;51.936;7.184;2023-11-21T10:11:11;9.50;99.90
46608;DHT22;32330;51.936;7.184;2023-11-21T10:13:41;9.50;99.90
46608;DHT22;32330;51.936;7.184;2023-11-21T10:16:13;9.60;99.90
46608;DHT22;32330;51.936;7.184;2023-11-21T10:18:42;9.60;99.90
46608;DHT22;32330;51.936;7.184;2023-11-21T10:21:11;9.60;99.90
46608;DHT22;32330;51.936;7.184;2023-11-21T10:23:39;9.70;99.90
46608;DHT22;32330;51.936;7.184;2023-11-21T10:26:06;9.70;99.90
46608;DHT22;32330;51.936;7.184;2023-11-21T10:28:36;9.80;99.90
46608;DHT22;32330;51.936;7.184;2023-11-21T10:31:08;9.80;99.90
46608;DHT22;32330;51.936;7.184;2023-11-21T10:33:35;9.80;99.90
46608;DHT22;32330;51.936;7.184;2023-11-21T10:36:02;9.80;99.90
46608;DHT22;32330;51.936;7.184;2023-11-21T10:38:33;9.90;99.90
46608;DHT22;32330;51.936;7.184;2023-11-21T10:41:03;9.90;99.90
46608;DHT22;32330;51.936;7.184;2023-11-21T10:43:32;9.90;99.90
46608;DHT22;32330;51.936;7.184;2023-11-21T10:45:59;9.90;99.90
46608;DHT22;32330;51.936;7.184;2023-11-21T10:48:28;9.90;99.90
46608;DHT22;32330;51.936;7.184;2023-11-21T10:50:55;10.00;99.90
46608;DHT22;32330;51.936;7.184;2023-11-21T10:53:22;10.00;99.90
46608;DHT22;32330;51.936;7.184;2023-11-21T10:55:49;10.00;99.90
46608;DHT22;32330;51.936;7.184;2023-11-21T10:58:17;9.90;99.90
46608;DHT22;32330;51.936;7.184;2023-11-21T11:00:44;10.00;99.90
46608;DHT22;32330;51.936;7.184;2023-11-21T11:03:12;10.00;99.90
46608;DHT22;32330;51.936;7.184;2023-11-21T11:05:43;10.00;99.90
46608;DHT22;32330;51.936;7.184;2023-11-21T11:08:18;10.00;99.90
46608;DHT22;32330;51.936;7.184;2023-11-21T11:10:45;10.00;99.90
46608;DHT22;32330;51.936;7.184;2023-11-21T11:13:13;9.90;99.90
46608;DHT22;32330;51.936;7.184;2023-11-21T11:15:42;9.90;99.90
46608;DHT22;32330;51.936;7.184;2023-11-21T11:18:10;10.00;99.90
46608;DHT22;32330;51.936;7.184;2023-11-21T11:20:38;10.00;99.90
46608;DHT22;32330;51.936;7.184;2023-11-21T11:23:27;10.00;99.90
46608;DHT22;32330;51.936;7.184;2023-11-21T11:26:08;10.10;99.90
46608;DHT22;32330;51.936;7.184;2023-11-21T11:28:47;10.20;99.90
46608;DHT22;32330;51.936;7.184;2023-11-21T11:31:27;10.20;99.90
46608;DHT22;32330;51.936;7.184;2023-11-21T11:34:08;10.10;99.90
46608;DHT22;32330;51.936;7.184;2023-11-21T11:36:47;10.10;99.90
46608;DHT22;32330;51.936;7.184;2023-11-21T11:39:30;10.10;99.90
46608;DHT22;32330;51.936;7.184;2023-11-21T11:41:58;10.10;99.90
46608;DHT22;32330;51.936;7.184;2023-11-21T11:44:48;10.10;99.90
46608;DHT22;32330;51.936;7.184;2023-11-21T11:47:22;10.00;99.90
46608;DHT22;32330;51.936;7.184;2023-11-21T11:50:00;10.00;99.90
46608;DHT22;32330;51.936;7.184;2023-11-21T11:52:40;10.10;99.90
46608;DHT22;32330;51.936;7.184;2023-11-21T11:55:10;10.00;99.90
46608;DHT22;32330;51.936;7.184;2023-11-21T11:57:40;10.10;99.90
46608;DHT22;32330;51.936;7.184;2023-11-21T12:00:14;10.10;99.90
46608;DHT22;32330;51.936;7.184;2023-11-21T12:02:52;10.10;99.90
46608;DHT22;32330;51.936;7.184;2023-11-21T12:05:19;10.10;99.90
46608;DHT22;32330;51.936;7.184;2023-11-21T12:07:48;10.10;99.90
46608;DHT22;32330;51.936;7.184;2023-11-21T12:10:18;10.10;99.90
46608;DHT22;32330;51.936;7.184;2023-11-21T12:12:47;10.10;99.90
46608;DHT22;32330;51.936;7.184;2023-11-21T12:15:14;10.10;99.90
46608;DHT22;32330;51.936;7.184;2023-11-21T12:17:42;10.00;99.90
46608;DHT22;32330;51.936;7.184;2023-11-21T12:20:11;9.90;99.90
46608;DHT22;32330;51.936;7.184;2023-11-21T12:22:45;9.90;99.90
46608;DHT22;32330;51.936;7.184;2023-11-21T12:25:15;9.90;99.90
46608;DHT22;32330;51.936;7.184;2023-11-21T12:27:46;9.90;99.90
46608;DHT22;32330;51.936;7.184;2023-11-21T12:30:16;9.80;99.90
46608;DHT22;32330;51.936;7.184;2023-11-21T12:32:44;9.80;99.90
46608;DHT22;32330;51.936;7.184;2023-11-21T12:35:12;9.80;99.90
46608;DHT22;32330;51.936;7.184;2023-11-21T12:37:41;9.70;99.90
46608;DHT22;32330;51.936;7.184;2023-11-21T12:40:10;9.70;99.90
46608;DHT22;32330;51.936;7.184;2023-11-21T12:42:39;9.70;99.90
46608;DHT22;32330;51.936;7.184;2023-11-21T12:45:19;9.70;99.90
46608;DHT22;32330;51.936;7.184;2023-11-21T12:47:47;9.70;99.90
46608;DHT22;32330;51.936;7.184;2023-11-21T12:50:15;9.70;99.90
46608;DHT22;32330;51.936;7.184;2023-11-21T12:52:43;9.70;99.90
46608;DHT22;32330;51.936;7.184;2023-11-21T12:55:17;9.80;99.90
46608;DHT22;32330;51.936;7.184;2023-11-21T12:57:45;9.80;99.90
46608;DHT22;32330;51.936;7.184;2023-11-21T13:00:15;9.90;99.90
46608;DHT22;32330;51.936;7.184;2023-11-21T13:02:54;9.90;99.90
46608;DHT22;32330;51.936;7.184;2023-11-21T13:05:27;9.90;99.90
46608;DHT22;32330;51.936;7.184;2023-11-21T13:07:54;9.80;99.90
46608;DHT22;32330;51.936;7.184;2023-11-21T13:10:24;9.80;99.90
46608;DHT22;32330;51.936;7.184;2023-11-21T13:12:55;9.70;99.90
46608;DHT22;32330;51.936;7.184;2023-11-21T13:15:25;9.70;99.90
46608;DHT22;32330;51.936;7.184;2023-11-21T13:17:53;9.70;99.90
46608;DHT22;32330;51.936;7.184;2023-11-21T13:20:21;9.80;99.90
46608;DHT22;32330;51.936;7.184;2023-11-21T13:22:51;9.80;99.90
46608;DHT22;32330;51.936;7.184;2023-11-21T13:25:20;9.80;99.90
46608;DHT22;32330;51.936;7.184;2023-11-21T13:27:48;9.80;99.90
46608;DHT22;32330;51.936;7.184;2023-11-21T13:30:16;9.80;99.90
46608;DHT22;32330;51.936;7.184;2023-11-21T13:32:45;9.80;99.90
46608;DHT22;32330;51.936;7.184;2023-11-21T13:35:14;9.80;99.90
46608;DHT22;32330;51.936;7.184;2023-11-21T13:37:50;9.80;99.90
46608;DHT22;32330;51.936;7.184;2023-11-21T13:40:22;9.80;99.90
46608;DHT22;32330;51.936;7.184;2023-11-21T13:42:52;9.80;99.90
46608;DHT22;32330;51.936;7.184;2023-11-21T13:45:21;9.70;99.90
46608;DHT22;32330;51.936;7.184;2023-11-21T13:47:52;9.70;99.90
46608;DHT22;32330;51.936;7.184;2023-11-21T13:50:24;9.50;99.90
46608;DHT22;32330;51.936;7.184;2023-11-21T13:52:56;9.50;99.90
46608;DHT22;32330;51.936;7.184;2023-11-21T13:55:23;9.40;99.90
46608;DHT22;32330;51.936;7.184;2023-11-21T13:57:51;9.40;99.90
46608;DHT22;32330;51.936;7.184;2023-11-21T14:00:18;9.40;99.90
46608;DHT22;32330;51.936;7.184;2023-11-21T14:03:11;9.30;99.90
46608;DHT22;32330;51.936;7.184;2023-11-21T14:05:46;9.30;99.90
46608;DHT22;32330;51.936;7.184;2023-11-21T14:08:18;9.30;99.90
46608;DHT22;32330;51.936;7.184;2023-11-21T14:10:46;9.20;99.90
46608;DHT22;32330;51.936;7.184;2023-11-21T14:13:17;9.20;99.90
46608;DHT22;32330;51.936;7.184;2023-11-21T14:15:43;9.20;99.90
46608;DHT22;32330;51.936;7.184;2023-11-21T14:18:13;9.10;99.90
46608;DHT22;32330;51.936;7.184;2023-11-21T14:20:43;9.00;99.90
46608;DHT22;32330;51.936;7.184;2023-11-21T14:23:10;9.00;99.90
46608;DHT22;32330;51.936;7.184;2023-11-21T14:25:37;9.00;99.90
46608;DHT22;32330;51.936;7.184;2023-11-21T14:28:05;9.00;99.90
46608;DHT22;32330;51.936;7.184;2023-11-21T14:30:32;9.00;99.90
46608;DHT22;32330;51.936;7.184;2023-11-21T14:33:01;9.00;99.90
46608;DHT22;32330;51.936;7.184;2023-11-21T14:35:29;9.00;99.90
46608;DHT22;32330;51.936;7.184;2023-11-21T14:37:58;8.90;99.90
46608;DHT22;32330;51.936;7.184;2023-11-21T14:40:26;8.90;99.90
46608;DHT22;32330;51.936;7.184;2023-11-21T14:42:59;8.80;99.90
46608;DHT22;32330;51.936;7.184;2023-11-21T14:45:26;8.70;99.90
46608;DHT22;32330;51.936;7.184;2023-11-21T14:47:54;8.70;99.90
46608;DHT22;32330;51.936;7.184;2023-11-21T14:50:33;8.70;99.90
46608;DHT22;32330;51.936;7.184;2023-11-21T14:53:37;8.60;99.90
46608;DHT22;32330;51.936;7.184;2023-11-21T14:56:16;8.60;99.90
46608;DHT22;32330;51.936;7.184;2023-11-21T14:58:52;8.60;99.90
46608;DHT22;32330;51.936;7.184;2023-11-21T15:01:19;8.50;99.90
46608;DHT22;32330;51.936;7.184;2023-11-21T15:03:56;8.60;99.90
46608;DHT22;32330;51.936;7.184;2023-11-21T15:06:23;8.60;99.90
46608;DHT22;32330;51.936;7.184;2023-11-21T15:08:56;8.50;99.90
46608;DHT22;32330;51.936;7.184;2023-11-21T15:11:48;8.50;99.90
46608;DHT22;32330;51.936;7.184;2023-11-21T15:14:16;8.50;99.90
46608;DHT22;32330;51.936;7.184;2023-11-21T15:16:49;8.50;99.90
46608;DHT22;32330;51.936;7.184;2023-11-21T15:19:18;8.40;99.90
46608;DHT22;32330;51.936;7.184;2023-11-21T15:21:52;8.40;99.90
46608;DHT22;32330;51.936;7.184;2023-11-21T15:24:19;8.50;99.90
46608;DHT22;32330;51.936;7.184;2023-11-21T15:26:46;8.40;99.90
46608;DHT22;32330;51.936;7.184;2023-11-21T15:29:13;8.40;99.90
46608;DHT22;32330;51.936;7.184;2023-11-21T15:31:40;8.40;99.90
46608;DHT22;32330;51.936;7.184;2023-11-21T15:34:11;8.30;99.90
46608;DHT22;32330;51.936;7.184;2023-11-21T15:36:38;8.20;99.90
46608;DHT22;32330;51.936;7.184;2023-11-21T15:39:06;8.20;99.90
46608;DHT22;32330;51.936;7.184;2023-11-21T15:41:36;8.10;99.90
46608;DHT22;32330;51.936;7.184;2023-11-21T15:44:05;8.10;99.90
46608;DHT22;32330;51.936;7.184;2023-11-21T15:46:33;8.10;99.90
46608;DHT22;32330;51.936;7.184;2023-11-21T15:49:01;8.10;99.90
46608;DHT22;32330;51.936;7.184;2023-11-21T15:51:36;8.10;99.90
46608;DHT22;32330;51.936;7.184;2023-11-21T15:54:03;8.10;99.90
46608;DHT22;32330;51.936;7.184;2023-11-21T15:56:31;8.20;99.90
46608;DHT22;32330;51.936;7.184;2023-11-21T15:59:00;8.10;99.90
46608;DHT22;32330;51.936;7.184;2023-11-21T16:01:27;8.10;99.90
46608;DHT22;32330;51.936;7.184;2023-11-21T16:03:53;8.00;99.90
46608;DHT22;32330;51.936;7.184;2023-11-21T16:06:20;8.00;99.90
46608;DHT22;32330;51.936;7.184;2023-11-21T16:08:47;7.90;99.90
46608;DHT22;32330;51.936;7.184;2023-11-21T16:11:14;8.00;99.90
46608;DHT22;32330;51.936;7.184;2023-11-21T16:13:42;8.00;99.90
46608;DHT22;32330;51.936;7.184;2023-11-21T16:16:11;8.00;99.90
46608;DHT22;32330;51.936;7.184;2023-11-21T16:18:38;8.00;99.90
46608;DHT22;32330;51.936;7.184;2023-11-21T16:21:05;8.10;99.90
46608;DHT22;32330;51.936;7.184;2023-11-21T16:23:34;8.10;99.90
46608;DHT22;32330;51.936;7.184;2023-11-21T16:26:03;8.10;99.90
46608;DHT22;32330;51.936;7.184;2023-11-21T16:28:30;8.00;99.90
46608;DHT22;32330;51.936;7.184;2023-11-21T16:30:58;7.90;99.90
46608;DHT22;32330;51.936;7.184;2023-11-21T16:33:25;7.90;99.90
46608;DHT22;32330;51.936;7.184;2023-11-21T16:35:54;7.90;99.90
46608;DHT22;32330;51.936;7.184;2023-11-21T16:38:21;7.90;99.90
46608;DHT22;32330;51.936;7.184;2023-11-21T16:40:48;7.90;99.90
46608;DHT22;32330;51.936;7.184;2023-11-21T16:43:15;7.80;99.90
46608;DHT22;32330;51.936;7.184;2023-11-21T16:45:42;7.80;99.90
46608;DHT22;32330;51.936;7.184;2023-11-21T16:48:15;7.80;99.90
46608;DHT22;32330;51.936;7.184;2023-11-21T16:50:43;7.80;99.90
46608;DHT22;32330;51.936;7.184;2023-11-21T16:53:10;7.80;99.90
46608;DHT22;32330;51.936;7.184;2023-11-21T16:55:37;7.80;99.90
46608;DHT22;32330;51.936;7.184;2023-11-21T16:58:04;7.80;99.90
46608;DHT22;32330;51.936;7.184;2023-11-21T17:00:30;7.80;99.90
46608;DHT22;32330;51.936;7.184;2023-11-21T17:02:58;7.70;99.90
46608;DHT22;32330;51.936;7.184;2023-11-21T17:05:26;7.70;99.90
46608;DHT22;32330;51.936;7.184;2023-11-21T17:07:53;7.70;99.90
46608;DHT22;32330;51.936;7.184;2023-11-21T17:10:20;7.70;99.90
46608;DHT22;32330;51.936;7.184;2023-11-21T17:12:47;7.70;99.90
46608;DHT22;32330;51.936;7.184;2023-11-21T17:15:16;7.70;99.90
46608;DHT22;32330;51.936;7.184;2023-11-21T17:17:43;7.70;99.90
46608;DHT22;32330;51.936;7.184;2023-11-21T17:20:10;7.70;99.90
46608;DHT22;32330;51.936;7.184;2023-11-21T17:22:39;7.70;99.90
46608;DHT22;32330;51.936;7.184;2023-11-21T17:25:08;7.70;99.90
46608;DHT22;32330;51.936;7.184;2023-11-21T17:27:35;7.70;99.90
46608;DHT22;32330;51.936;7.184;2023-11-21T17:30:02;7.70;99.90
46608;DHT22;32330;51.936;7.184;2023-11-21T17:32:30;7.70;99.90
46608;DHT22;32330;51.936;7.184;2023-11-21T17:34:57;7.60;99.90
46608;DHT22;32330;51.936;7.184;2023-11-21T17:37:25;7.70;99.90
46608;DHT22;32330;51.936;7.184;2023-11-21T17:39:54;7.70;99.90
46608;DHT22;32330;51.936;7.184;2023-11-21T17:42:21;7.70;99.90
46608;DHT22;32330;51.936;7.184;2023-11-21T17:44:48;7.60;99.90
46608;DHT22;32330;51.936;7.184;2023-11-21T17:47:15;7.60;99.90
46608;DHT22;32330;51.936;7.184;2023-11-21T17:49:44;7.60;99.90
46608;DHT22;32330;51.936;7.184;2023-11-21T17:52:11;7.50;99.90
46608;DHT22;32330;51.936;7.184;2023-11-21T17:54:38;7.50;99.90
46608;DHT22;32330;51.936;7.184;2023-11-21T17:57:08;7.50;99.90
46608;DHT22;32330;51.936;7.184;2023-11-21T17:59:37;7.50;99.90
46608;DHT22;32330;51.936;7.184;2023-11-21T18:02:05;7.50;99.90
46608;DHT22;32330;51.936;7.184;2023-11-21T18:04:32;7.50;99.90
46608;DHT22;32330;51.936;7.184;2023-11-21T18:07:00;7.50;99.90
46608;DHT22;32330;51.936;7.184;2023-11-21T18:09:28;7.50;99.90
46608;DHT22;32330;51.936;7.184;2023-11-21T18:11:55;7.50;99.90
46608;DHT22;32330;51.936;7.184;2023-11-21T18:14:23;7.50;99.90
46608;DHT22;32330;51.936;7.184;2023-11-21T18:16:50;7.50;99.90
46608;DHT22;32330;51.936;7.184;2023-11-21T18:19:17;7.50;99.90
46608;DHT22;32330;51.936;7.184;2023-11-21T18:21:45;7.50;99.90
46608;DHT22;32330;51.936;7.184;2023-11-21T18:24:12;7.50;99.90
46608;DHT22;32330;51.936;7.184;2023-11-21T18:26:39;7.50;99.90
46608;DHT22;32330;51.936;7.184;2023-11-21T18:29:05;7.50;99.90
46608;DHT22;32330;51.936;7.184;2023-11-21T18:31:35;7.50;99.90
46608;DHT22;32330;51.936;7.184;2023-11-21T18:34:02;7.50;99.90
46608;DHT22;32330;51.936;7.184;2023-11-21T18:36:31;7.50;99.90
46608;DHT22;32330;51.936;7.184;2023-11-21T18:38:58;7.50;99.90
46608;DHT22;32330;51.936;7.184;2023-11-21T18:41:25;7.60;99.90
46608;DHT22;32330;51.936;7.184;2023-11-21T18:43:52;7.50;99.90
46608;DHT22;32330;51.936;7.184;2023-11-21T18:46:20;7.50;99.90
46608;DHT22;32330;51.936;7.184;2023-11-21T18:48:48;7.50;99.90
46608;DHT22;32330;51.936;7.184;2023-11-21T18:51:16;7.50;99.90
46608;DHT22;32330;51.936;7.184;2023-11-21T18:53:43;7.50;99.90
46608;DHT22;32330;51.936;7.184;2023-11-21T18:56:18;7.40;99.90
46608;DHT22;32330;51.936;7.184;2023-11-21T18:58:46;7.40;99.90
46608;DHT22;32330;51.936;7.184;2023-11-21T19:01:24;7.30;99.90
46608;DHT22;32330;51.936;7.184;2023-11-21T19:03:53;7.40;99.90
46608;DHT22;32330;51.936;7.184;2023-11-21T19:06:20;7.30;99.90
46608;DHT22;32330;51.936;7.184;2023-11-21T19:08:47;7.30;99.90
46608;DHT22;32330;51.936;7.184;2023-11-21T19:11:14;7.20;99.90
46608;DHT22;32330;51.936;7.184;2023-11-21T19:13:41;7.10;99.90
46608;DHT22;32330;51.936;7.184;2023-11-21T19:16:08;7.10;99.90
46608;DHT22;32330;51.936;7.184;2023-11-21T19:18:36;7.10;99.90
46608;DHT22;32330;51.936;7.184;2023-11-21T19:21:05;7.00;99.90
46608;DHT22;32330;51.936;7.184;2023-11-21T19:23:32;7.00;99.90
46608;DHT22;32330;51.936;7.184;2023-11-21T19:25:59;7.00;99.90
46608;DHT22;32330;51.936;7.184;2023-11-21T19:28:25;7.00;99.90
46608;DHT22;32330;51.936;7.184;2023-11-21T19:30:52;7.00;99.90
46608;DHT22;32330;51.936;7.184;2023-11-21T19:33:21;7.00;99.90
46608;DHT22;32330;51.936;7.184;2023-11-21T19:35:50;7.00;99.90
46608;DHT22;32330;51.936;7.184;2023-11-21T19:38:18;7.00;99.90
46608;DHT22;32330;51.936;7.184;2023-11-21T19:40:46;7.00;99.90
46608;DHT22;32330;51.936;7.184;2023-11-21T19:43:13;7.00;99.90
46608;DHT22;32330;51.936;7.184;2023-11-21T19:45:40;7.00;99.90
46608;DHT22;32330;51.936;7.184;2023-11-21T19:48:07;7.00;99.90
46608;DHT22;32330;51.936;7.184;2023-11-21T19:50:34;7.00;99.90
46608;DHT22;32330;51.936;7.184;2023-11-21T19:53:01;7.00;99.90
46608;DHT22;32330;51.936;7.184;2023-11-21T19:55:30;7.00;99.90
46608;DHT22;32330;51.936;7.184;2023-11-21T19:57:57;7.00;99.90
46608;DHT22;32330;51.936;7.184;2023-11-21T20:00:26;7.00;99.90
46608;DHT22;32330;51.936;7.184;2023-11-21T20:02:54;7.00;99.90
46608;DHT22;32330;51.936;7.184;2023-11-21T20:05:21;7.00;99.90
46608;DHT22;32330;51.936;7.184;2023-11-21T20:07:48;7.00;99.90
46608;DHT22;32330;51.936;7.184;2023-11-21T20:10:15;7.00;99.90
46608;DHT22;32330;51.936;7.184;2023-11-21T20:12:45;7.00;99.90
46608;DHT22;32330;51.936;7.184;2023-11-21T20:15:12;6.90;99.90
46608;DHT22;32330;51.936;7.184;2023-11-21T20:17:39;6.90;99.90
46608;DHT22;32330;51.936;7.184;2023-11-21T20:20:12;6.90;99.90
46608;DHT22;32330;51.936;7.184;2023-11-21T20:22:41;6.90;99.90
46608;DHT22;32330;51.936;7.184;2023-11-21T20:25:11;6.80;99.90
46608;DHT22;32330;51.936;7.184;2023-11-21T20:27:39;6.80;99.90
46608;DHT22;32330;51.936;7.184;2023-11-21T20:30:08;6.80;99.90
46608;DHT22;32330;51.936;7.184;2023-11-21T20:32:36;6.70;99.90
46608;DHT22;32330;51.936;7.184;2023-11-21T20:35:03;6.70;99.90
46608;DHT22;32330;51.936;7.184;2023-11-21T20:37:31;6.60;99.90
46608;DHT22;32330;51.936;7.184;2023-11-21T20:40:00;6.70;99.90
46608;DHT22;32330;51.936;7.184;2023-11-21T20:42:29;6.50;99.90